Time;durP1;ratioP1;P1;durP2;ratioP2;P2;SDS_P1;SDS_P2;PMS_P1;PMS_P2;Temp;Humidity;BMP_temperature;BMP_pressure;BME280_temperature;BME280_humidity;BME280_pressure;Samples;Min_cycle;Max_cycle;Signal;HPM_P1;HPM_P2
2022/09/03 00:01:37;;;;;;;0.63;0.50;;;;;;;18.91;54.42;99781.53;5066519;28;20443;-48
2022/09/03 00:04:19;;;;;;;0.60;0.40;;;;;;;18.49;54.93;99779.13;5053009;28;20494;-49
2022/09/03 00:07:00;;;;;;;0.60;0.37;;;;;;;18.76;54.29;99776.34;5053020;28;20478;-48
2022/09/03 00:09:33;;;;;;;0.97;0.60;;;;;;;18.77;54.91;99778.94;5052642;28;20450;-49
2022/09/03 00:12:32;;;;;;;0.50;0.43;;;;;;;18.67;54.37;99783.28;5052898;28;20443;-48
2022/09/03 00:15:06;;;;;;;0.80;0.50;;;;;;;18.86;53.86;99766.66;5036553;28;20529;-49
2022/09/03 00:18:08;;;;;;;0.60;0.40;;;;;;;18.87;54.27;99776.47;5052968;28;20465;-50
2022/09/03 00:20:42;;;;;;;2.13;0.73;;;;;;;18.71;54.76;99779.38;5052463;28;20453;-48
2022/09/03 00:23:17;;;;;;;0.70;0.40;;;;;;;18.89;54.05;99774.53;5052236;28;20457;-49
2022/09/03 00:25:49;;;;;;;0.57;0.30;;;;;;;19.05;53.44;99775.16;5052618;28;20516;-49
2022/09/03 00:28:24;;;;;;;6.53;0.60;;;;;;;19.08;53.31;99774.09;5052603;28;20970;-49
2022/09/03 00:31:01;;;;;;;0.50;0.40;;;;;;;18.87;53.81;99777.31;5041850;28;20447;-48
2022/09/03 00:33:31;;;;;;;6.37;0.60;;;;;;;18.85;54.22;99786.50;5052689;28;20472;-47
2022/09/03 00:36:01;;;;;;;0.70;0.60;;;;;;;18.65;54.92;99782.53;5052440;28;20467;-47
2022/09/03 00:38:28;;;;;;;0.60;0.40;;;;;;;18.57;55.15;99769.53;5052374;28;20447;-49
2022/09/03 00:41:05;;;;;;;0.70;0.53;;;;;;;18.68;54.89;99779.59;5052539;28;20462;-47
2022/09/03 00:43:45;;;;;;;0.70;0.60;;;;;;;18.69;55.31;99775.09;5052333;28;20581;-47
2022/09/03 00:46:18;;;;;;;0.70;0.50;;;;;;;18.54;55.24;99777.84;5052115;28;20484;-48
2022/09/03 00:49:23;;;;;;;1.30;0.70;;;;;;;18.48;56.04;99770.19;5051736;28;20818;-47
2022/09/03 00:51:55;;;;;;;0.70;0.50;;;;;;;18.49;56.13;99773.72;5049459;28;20472;-48
2022/09/03 00:54:34;;;;;;;11.13;0.47;;;;;;;18.42;56.30;99780.53;5052275;28;20439;-47
2022/09/03 00:57:09;;;;;;;0.90;0.50;;;;;;;18.49;56.31;99776.41;5052162;28;20463;-48
2022/09/03 00:59:48;;;;;;;0.60;0.40;;;;;;;18.47;56.11;99768.47;5055926;28;20938;-48
2022/09/03 01:02:32;;;;;;;1.13;0.67;;;;;;;18.35;56.54;99774.69;5058317;28;20528;-47
2022/09/03 01:05:14;;;;;;;0.70;0.50;;;;;;;18.45;56.33;99772.22;5052098;28;20496;-47
2022/09/03 01:07:52;;;;;;;0.50;0.37;;;;;;;18.41;56.07;99778.81;5050534;28;20485;-49
2022/09/03 01:10:27;;;;;;;0.50;0.30;;;;;;;18.43;56.19;99775.03;5052168;28;20939;-48
2022/09/03 01:13:15;;;;;;;0.57;0.40;;;;;;;18.66;56.35;99778.84;5052101;28;20943;-47
2022/09/03 01:16:01;;;;;;;3.90;0.73;;;;;;;18.56;55.40;99777.72;5052172;28;20449;-48
2022/09/03 01:18:55;;;;;;;1.00;0.63;;;;;;;18.76;55.25;99770.97;5051906;28;20447;-48
2022/09/03 01:21:34;;;;;;;7.87;0.90;;;;;;;18.67;55.15;99779.72;5052167;28;20539;-47
2022/09/03 01:24:30;;;;;;;0.87;0.80;;;;;;;18.79;55.28;99773.47;5051497;28;20860;-48
2022/09/03 01:27:09;;;;;;;0.57;0.40;;;;;;;18.81;54.98;99776.91;5052008;28;20470;-48
2022/09/03 01:29:52;;;;;;;1.47;0.50;;;;;;;18.86;55.05;99783.69;5043482;28;20461;-47
2022/09/03 01:32:28;;;;;;;0.50;0.37;;;;;;;18.81;55.15;99782.31;5052194;28;20439;-47
2022/09/03 01:35:03;;;;;;;4.13;0.83;;;;;;;19.01;54.08;99770.94;5051928;28;20438;-48
2022/09/03 01:38:05;;;;;;;1.60;0.43;;;;;;;18.85;55.11;99770.31;5051845;28;20496;-48
2022/09/03 01:40:43;;;;;;;1.13;0.40;;;;;;;18.79;54.69;99763.56;5040156;28;20447;-48
2022/09/03 01:43:14;;;;;;;1.10;0.77;;;;;;;18.88;54.71;99762.88;5051915;28;20460;-47
2022/09/03 01:45:53;;;;;;;0.83;0.40;;;;;;;19.10;54.06;99772.13;5051438;28;20486;-48
2022/09/03 01:48:29;;;;;;;0.50;0.30;;;;;;;19.08;54.04;99779.47;5051659;28;20458;-47
2022/09/03 01:51:23;;;;;;;0.60;0.40;;;;;;;19.01;54.27;99770.09;5052090;28;20442;-49
2022/09/03 01:54:27;;;;;;;0.60;0.40;;;;;;;18.99;54.51;99770.19;5051302;28;20498;-49
2022/09/03 01:57:12;;;;;;;0.70;0.50;;;;;;;18.97;54.26;99764.06;5051886;28;20470;-48
2022/09/03 02:00:12;;;;;;;1.10;0.60;;;;;;;18.91;54.72;99773.47;5060196;28;20438;-47
2022/09/03 02:02:47;;;;;;;8.30;0.70;;;;;;;18.95;54.91;99774.09;5057422;28;20443;-47
2022/09/03 02:05:16;;;;;;;1.00;0.50;;;;;;;19.13;54.60;99777.28;5055506;28;20494;-48
2022/09/03 02:07:51;;;;;;;0.90;0.77;;;;;;;19.05;54.68;99768.88;5055393;28;20485;-48
2022/09/03 02:10:22;;;;;;;0.50;0.40;;;;;;;19.00;55.14;99782.69;5055753;28;20926;-48
2022/09/03 02:12:55;;;;;;;6.97;0.70;;;;;;;19.04;54.86;99773.41;5055544;28;20804;-48
2022/09/03 02:15:26;;;;;;;1.00;0.50;;;;;;;19.00;55.72;99779.16;5055354;28;20931;-48
2022/09/03 02:17:56;;;;;;;0.63;0.43;;;;;;;18.77;55.67;99776.25;5055428;28;20522;-48
2022/09/03 02:20:26;;;;;;;28.53;1.53;;;;;;;18.74;55.71;99776.47;5055671;28;20446;-49
2022/09/03 02:22:53;;;;;;;1.10;0.60;;;;;;;18.77;55.65;99773.56;5055781;28;20451;-48
2022/09/03 02:25:22;;;;;;;0.70;0.60;;;;;;;18.70;56.20;99774.09;5055186;28;20483;-49
2022/09/03 02:27:49;;;;;;;0.70;0.50;;;;;;;18.79;55.88;99776.16;5054893;28;20475;-48
2022/09/03 02:30:17;;;;;;;0.60;0.50;;;;;;;18.80;56.46;99778.75;5054977;28;20456;-48
2022/09/03 02:32:43;;;;;;;0.60;0.50;;;;;;;18.88;55.95;99780.88;5055034;28;20447;-48
2022/09/03 02:35:11;;;;;;;0.60;0.40;;;;;;;18.74;56.22;99778.31;5055399;28;20453;-48
2022/09/03 02:37:39;;;;;;;0.90;0.57;;;;;;;18.89;55.77;99772.69;5054315;28;20471;-48
2022/09/03 02:40:08;;;;;;;0.60;0.40;;;;;;;18.90;55.49;99773.53;5054514;28;20455;-49
2022/09/03 02:42:35;;;;;;;1.10;1.00;;;;;;;18.86;55.88;99777.44;5054223;28;20508;-48
2022/09/03 02:45:05;;;;;;;0.90;0.57;;;;;;;18.96;55.54;99781.22;5054300;28;20491;-49
2022/09/03 02:47:34;;;;;;;0.80;0.60;;;;;;;19.05;55.53;99782.34;5054608;28;20529;-51
2022/09/03 02:50:01;;;;;;;0.63;0.50;;;;;;;18.82;56.11;99776.81;5054628;28;20454;-51
2022/09/03 02:52:27;;;;;;;0.60;0.47;;;;;;;18.87;55.99;99774.63;5054598;28;20451;-51
2022/09/03 02:54:53;;;;;;;0.70;0.43;;;;;;;18.96;56.67;99781.22;5054389;28;20455;-51
2022/09/03 02:57:20;;;;;;;0.60;0.40;;;;;;;18.79;55.89;99776.16;5053825;28;21009;-51
2022/09/03 02:59:53;;;;;;;0.70;0.43;;;;;;;18.77;56.61;99784.31;5062018;28;20485;-51
2022/09/03 03:02:20;;;;;;;0.77;0.50;;;;;;;18.79;56.31;99786.94;5060154;28;20453;-51
2022/09/03 03:04:46;;;;;;;0.57;0.33;;;;;;;18.88;56.18;99781.72;5054371;28;20494;-51
2022/09/03 03:07:13;;;;;;;0.80;0.73;;;;;;;18.88;56.61;99781.72;5053716;28;21030;-51
2022/09/03 03:09:39;;;;;;;0.70;0.50;;;;;;;18.62;57.02;99785.38;5054007;28;20455;-51
2022/09/03 03:12:07;;;;;;;0.93;0.70;;;;;;;18.73;56.72;99780.13;5053766;28;20451;-51
2022/09/03 03:14:33;;;;;;;1.10;0.50;;;;;;;18.73;56.66;99773.88;5054213;28;20453;-51
2022/09/03 03:16:59;;;;;;;0.60;0.33;;;;;;;18.77;56.74;99768.16;5053775;28;20851;-50
2022/09/03 03:19:26;;;;;;;2.83;0.67;;;;;;;18.59;57.62;99767.59;5053909;28;20944;-51
2022/09/03 03:21:52;;;;;;;0.50;0.30;;;;;;;18.53;57.80;99762.66;5053918;28;20454;-51
2022/09/03 03:24:19;;;;;;;0.67;0.50;;;;;;;18.52;57.83;99763.63;5053780;28;20490;-51
2022/09/03 03:26:45;;;;;;;0.70;0.43;;;;;;;18.31;58.33;99759.72;5053492;28;20486;-51
2022/09/03 03:29:16;;;;;;;0.80;0.63;;;;;;;18.32;58.30;99756.94;5054097;28;20815;-51
2022/09/03 03:31:42;;;;;;;0.83;0.40;;;;;;;18.24;58.55;99756.63;5054824;28;20449;-50
2022/09/03 03:34:09;;;;;;;0.70;0.70;;;;;;;18.17;59.45;99762.50;5053858;28;20454;-51
2022/09/03 03:36:35;;;;;;;0.93;0.80;;;;;;;18.07;59.74;99764.94;5053053;28;20479;-50
2022/09/03 03:39:02;;;;;;;0.60;0.50;;;;;;;18.12;59.54;99764.66;5053602;28;20457;-50
2022/09/03 03:41:32;;;;;;;1.23;0.50;;;;;;;18.04;59.76;99760.66;5053543;28;20450;-51
2022/09/03 03:44:03;;;;;;;1.43;0.50;;;;;;;17.89;60.31;99763.50;5053158;28;20454;-50
2022/09/03 03:46:35;;;;;;;0.60;0.40;;;;;;;17.89;61.02;99766.22;5052964;28;20999;-51
2022/09/03 03:49:01;;;;;;;5.57;1.13;;;;;;;17.91;60.33;99767.81;5045348;28;20443;-51
2022/09/03 03:51:29;;;;;;;0.70;0.40;;;;;;;17.80;60.90;99764.97;5053212;28;20454;-51
2022/09/03 03:53:57;;;;;;;0.70;0.50;;;;;;;17.97;60.64;99769.25;5053254;28;20939;-51
2022/09/03 03:56:28;;;;;;;1.13;0.60;;;;;;;17.82;61.40;99772.94;5053212;28;20502;-49
2022/09/03 03:58:55;;;;;;;0.60;0.40;;;;;;;17.85;61.54;99772.75;5052781;28;20954;-50
2022/09/03 04:01:24;;;;;;;0.80;0.50;;;;;;;17.90;61.14;99774.16;5066514;28;20447;-50
2022/09/03 04:03:53;;;;;;;0.50;0.30;;;;;;;17.76;61.70;99776.91;5053105;28;20479;-50
2022/09/03 04:06:22;;;;;;;0.80;0.60;;;;;;;17.88;61.22;99773.41;5053573;28;20624;-51
2022/09/03 04:08:49;;;;;;;0.77;0.63;;;;;;;17.90;60.79;99774.16;5054716;28;20837;-51
2022/09/03 04:11:21;;;;;;;0.50;0.37;;;;;;;18.00;60.91;99766.34;5052987;28;20886;-49
2022/09/03 04:13:48;;;;;;;1.77;0.60;;;;;;;18.05;60.77;99770.44;5052945;28;20878;-49
2022/09/03 04:16:24;;;;;;;0.60;0.40;;;;;;;18.10;60.49;99767.47;5052114;28;20470;-49
2022/09/03 04:18:53;;;;;;;1.77;0.80;;;;;;;18.03;60.85;99756.22;5052670;28;20472;-50
2022/09/03 04:21:22;;;;;;;0.60;0.40;;;;;;;18.10;60.36;99758.53;5052314;28;20450;-50
2022/09/03 04:23:50;;;;;;;1.10;0.80;;;;;;;18.19;60.23;99760.56;5052361;28;20453;-50
2022/09/03 04:26:20;;;;;;;0.50;0.40;;;;;;;18.06;60.75;99761.41;5052548;28;20491;-51
2022/09/03 04:28:47;;;;;;;0.80;0.43;;;;;;;18.03;61.55;99764.31;5052673;28;20854;-50
2022/09/03 04:31:18;;;;;;;0.60;0.30;;;;;;;18.07;61.74;99767.63;5052272;28;20500;-51
2022/09/03 04:33:45;;;;;;;0.70;0.47;;;;;;;18.09;62.39;99767.53;5052303;28;20538;-50
2022/09/03 04:36:12;;;;;;;10.53;0.60;;;;;;;17.99;63.73;99770.88;5051570;28;21072;-50
2022/09/03 04:38:41;;;;;;;1.23;0.60;;;;;;;17.92;63.14;99777.59;5052381;28;20961;-50
2022/09/03 04:41:10;;;;;;;0.70;0.50;;;;;;;17.90;62.90;99782.22;5052066;28;20465;-50
2022/09/03 04:43:37;;;;;;;0.70;0.70;;;;;;;17.90;62.19;99776.00;5052182;28;20957;-50
2022/09/03 04:46:06;;;;;;;0.70;0.40;;;;;;;17.96;62.02;99783.66;5038985;28;20484;-51
2022/09/03 04:48:42;;;;;;;0.80;0.50;;;;;;;17.93;62.04;99786.53;5052523;28;20529;-50
2022/09/03 04:51:14;;;;;;;0.60;0.50;;;;;;;17.94;61.83;99785.56;5051621;28;20955;-50
2022/09/03 04:53:42;;;;;;;1.53;1.10;;;;;;;18.04;62.05;99786.69;5052379;28;20447;-49
2022/09/03 04:56:18;;;;;;;3.43;0.50;;;;;;;17.80;62.37;99793.69;5051844;28;21013;-50
2022/09/03 04:58:45;;;;;;;0.50;0.40;;;;;;;17.87;62.24;99792.34;5052422;28;20831;-51
2022/09/03 05:01:19;;;;;;;0.70;0.60;;;;;;;17.84;62.33;99793.41;5065404;28;20454;-50
2022/09/03 05:03:47;;;;;;;2.33;0.60;;;;;;;17.65;63.63;99798.22;5052210;28;20861;-50
2022/09/03 05:06:15;;;;;;;0.60;0.30;;;;;;;17.59;63.55;99794.13;5051567;28;20490;-50
2022/09/03 05:08:47;;;;;;;1.33;0.60;;;;;;;17.64;63.75;99799.19;5051918;28;20483;-49
2022/09/03 05:11:15;;;;;;;7.73;0.57;;;;;;;17.57;64.11;99795.19;5051891;28;20455;-50
2022/09/03 05:13:41;;;;;;;2.03;1.17;;;;;;;17.63;66.66;99800.16;5052171;28;20447;-50
2022/09/03 05:16:11;;;;;;;0.73;0.60;;;;;;;17.56;72.25;99796.16;5052075;28;20479;-50
2022/09/03 05:18:38;;;;;;;1.00;0.60;;;;;;;17.73;74.53;99799.50;5051485;28;20533;-50
2022/09/03 05:21:09;;;;;;;0.70;0.60;;;;;;;17.42;79.71;99805.97;5051411;28;20840;-49
2022/09/03 05:23:39;;;;;;;1.20;0.60;;;;;;;17.32;80.33;99804.84;5051452;28;20458;-49
2022/09/03 05:26:08;;;;;;;0.60;0.40;;;;;;;16.99;80.04;99813.19;5051979;28;20494;-50
2022/09/03 05:28:38;;;;;;;1.67;0.70;;;;;;;17.23;83.93;99826.03;5051433;28;20459;-49
2022/09/03 05:31:13;;;;;;;0.60;0.40;;;;;;;16.94;84.65;99830.56;5051610;28;20453;-49
2022/09/03 05:33:45;;;;;;;0.87;0.57;;;;;;;16.75;86.00;99834.41;5049505;28;20451;-50
2022/09/03 05:36:16;;;;;;;0.57;0.50;;;;;;;16.85;88.70;99837.34;5050610;28;20455;-49
2022/09/03 05:38:43;;;;;;;1.00;0.70;;;;;;;16.89;87.89;99838.91;5055956;28;20452;-50
2022/09/03 05:41:12;;;;;;;2.83;0.77;;;;;;;16.88;88.14;99835.38;5054877;28;20451;-49
2022/09/03 05:43:39;;;;;;;1.03;0.83;;;;;;;16.87;87.93;99828.28;5053174;28;20450;-49
2022/09/03 05:46:15;;;;;;;2.67;0.63;;;;;;;17.00;88.45;99831.06;5054995;28;20494;-50
2022/09/03 05:48:42;;;;;;;0.90;0.80;;;;;;;16.94;86.17;99836.78;5054455;28;20476;-50
2022/09/03 05:51:18;;;;;;;1.63;1.53;;;;;;;16.96;85.82;99831.31;5052534;28;20446;-49
2022/09/03 05:53:46;;;;;;;1.07;0.97;;;;;;;17.08;90.18;99835.94;5055532;28;20454;-50
2022/09/03 05:56:19;;;;;;;0.80;0.60;;;;;;;16.98;91.81;99842.81;5055287;28;20477;-50
2022/09/03 05:58:48;;;;;;;2.40;0.90;;;;;;;17.06;90.63;99838.72;5055458;28;20508;-51
2022/09/03 06:01:20;;;;;;;1.30;0.80;;;;;;;17.09;87.79;99851.09;5062596;28;20458;-50
2022/09/03 06:03:55;;;;;;;0.70;0.70;;;;;;;16.99;90.68;99841.88;5055226;28;20449;-51
2022/09/03 06:06:24;;;;;;;5.23;1.53;;;;;;;16.97;90.73;99854.53;5055233;28;20494;-51
2022/09/03 06:08:51;;;;;;;1.77;1.57;;;;;;;17.08;90.94;99852.06;5054663;28;20486;-51
2022/09/03 06:11:18;;;;;;;3.33;0.60;;;;;;;17.20;91.66;99853.97;5054581;28;20463;-50
2022/09/03 06:13:46;;;;;;;0.80;0.73;;;;;;;17.15;88.24;99848.03;5054366;28;20462;-50
2022/09/03 06:16:12;;;;;;;26.80;1.47;;;;;;;17.11;87.85;99835.75;5055254;28;20476;-51
2022/09/03 06:18:39;;;;;;;0.80;0.60;;;;;;;16.95;90.82;99843.03;5054928;28;20942;-50
2022/09/03 06:21:06;;;;;;;1.83;1.30;;;;;;;17.11;90.09;99843.78;5055449;28;20461;-51
2022/09/03 06:23:34;;;;;;;0.80;0.80;;;;;;;17.23;92.16;99837.66;5055054;28;20951;-50
2022/09/03 06:26:07;;;;;;;17.70;1.20;;;;;;;17.15;93.38;99832.78;5054950;28;20548;-51
2022/09/03 06:28:35;;;;;;;0.77;0.57;;;;;;;17.07;93.33;99836.91;5055088;28;20453;-51
2022/09/03 06:31:04;;;;;;;2.40;0.97;;;;;;;16.94;94.38;99831.44;5054984;28;20457;-50
2022/09/03 06:33:33;;;;;;;0.67;0.50;;;;;;;17.01;97.71;99830.09;5054886;28;20455;-51
2022/09/03 06:36:01;;;;;;;2.60;2.13;;;;;;;17.08;97.75;99823.38;5054726;28;20991;-51
2022/09/03 06:38:34;;;;;;;1.20;0.80;;;;;;;17.18;99.83;99826.34;5054967;28;20803;-51
2022/09/03 06:41:04;;;;;;;10.33;1.00;;;;;;;17.04;98.42;99834.41;5054611;28;20447;-51
2022/09/03 06:43:34;;;;;;;0.70;0.70;;;;;;;17.11;98.06;99827.69;5054954;28;20504;-50
2022/09/03 06:46:04;;;;;;;0.80;0.70;;;;;;;17.09;97.84;99837.66;5054423;28;20491;-51
2022/09/03 06:48:32;;;;;;;1.97;0.70;;;;;;;16.77;97.12;99831.63;5053942;28;20538;-51
2022/09/03 06:51:14;;;;;;;3.80;1.00;;;;;;;16.80;96.05;99837.66;5054681;28;20809;-51
2022/09/03 06:53:43;;;;;;;2.10;2.00;;;;;;;16.98;97.23;99842.81;5054467;28;20995;-51
2022/09/03 06:56:18;;;;;;;0.93;0.50;;;;;;;17.17;98.01;99846.13;5054569;28;20467;-51
2022/09/03 06:58:46;;;;;;;0.63;0.57;;;;;;;17.20;98.73;99848.59;5054614;28;20504;-50
2022/09/03 07:01:18;;;;;;;3.07;1.03;;;;;;;17.39;97.36;99857.22;5067680;28;20457;-56
2022/09/03 07:03:47;;;;;;;2.70;1.00;;;;;;;17.44;97.67;99863.16;5054521;28;20458;-50
2022/09/03 07:06:16;;;;;;;1.27;1.17;;;;;;;17.53;97.72;99860.84;5054024;28;20661;-51
2022/09/03 07:08:44;;;;;;;0.70;0.67;;;;;;;17.48;96.24;99866.53;5054343;28;20469;-51
2022/09/03 07:11:13;;;;;;;0.80;0.80;;;;;;;17.58;96.98;99864.13;5054119;28;20841;-52
2022/09/03 07:13:46;;;;;;;0.93;0.93;;;;;;;17.44;95.01;99867.69;5053897;28;20451;-50
2022/09/03 07:16:16;;;;;;;1.40;1.30;;;;;;;17.48;96.45;99869.22;5054124;28;20538;-50
2022/09/03 07:18:43;;;;;;;0.67;0.63;;;;;;;17.44;95.29;99867.69;5053936;28;20451;-50
2022/09/03 07:21:18;;;;;;;0.70;0.57;;;;;;;17.29;97.06;99871.34;5054068;28;20446;-51
2022/09/03 07:23:45;;;;;;;0.90;0.73;;;;;;;17.18;96.95;99872.00;5053761;28;20525;-51
2022/09/03 07:26:18;;;;;;;3.27;1.30;;;;;;;17.09;97.52;99873.44;5053656;28;20522;-51
2022/09/03 07:28:45;;;;;;;1.60;1.50;;;;;;;17.06;96.77;99872.78;5053801;28;20449;-50
2022/09/03 07:31:14;;;;;;;1.60;0.70;;;;;;;16.83;96.16;99872.34;5053574;28;20447;-50
2022/09/03 07:33:41;;;;;;;0.70;0.60;;;;;;;16.68;99.43;99878.66;5053611;28;20450;-50
2022/09/03 07:36:14;;;;;;;0.73;0.70;;;;;;;16.53;99.60;99874.19;5053519;28;20462;-50
2022/09/03 07:38:43;;;;;;;5.87;0.90;;;;;;;16.34;100.00;99869.06;5053262;28;20446;-50
2022/09/03 07:41:11;;;;;;;3.80;1.20;;;;;;;16.41;100.00;99867.72;5053419;28;20928;-50
2022/09/03 07:43:47;;;;;;;1.80;1.17;;;;;;;16.18;100.00;99860.19;5053623;28;20891;-50
2022/09/03 07:46:21;;;;;;;1.53;0.80;;;;;;;16.14;100.00;99855.94;5053139;28;20529;-49
2022/09/03 07:48:51;;;;;;;0.67;0.50;;;;;;;16.17;100.00;99853.06;5053793;28;20450;-49
2022/09/03 07:51:19;;;;;;;0.93;0.70;;;;;;;16.18;100.00;99858.38;5053032;28;20932;-50
2022/09/03 07:53:47;;;;;;;0.70;0.60;;;;;;;16.36;100.00;99850.19;5053149;28;20454;-53
2022/09/03 07:56:14;;;;;;;1.20;1.10;;;;;;;16.16;100.00;99844.16;5053211;28;20462;-49
2022/09/03 07:58:41;;;;;;;1.10;0.97;;;;;;;16.36;100.00;99845.69;5052697;28;20443;-50
2022/09/03 08:01:12;;;;;;;1.20;1.00;;;;;;;16.48;100.00;99865.56;5066174;28;20449;-50
2022/09/03 08:03:47;;;;;;;1.00;0.60;;;;;;;16.58;100.00;99862.22;5052914;28;20450;-55
2022/09/03 08:06:15;;;;;;;0.90;0.90;;;;;;;16.73;100.00;99881.09;5052950;28;20494;-50
2022/09/03 08:08:44;;;;;;;2.60;1.30;;;;;;;16.64;100.00;99890.50;5053113;28;20457;-51
2022/09/03 08:11:16;;;;;;;0.83;0.83;;;;;;;16.70;100.00;99879.41;5052970;28;20454;-50
2022/09/03 08:13:53;;;;;;;2.53;0.93;;;;;;;16.99;100.00;99904.50;5053026;28;20447;-51
2022/09/03 08:16:20;;;;;;;0.70;0.60;;;;;;;17.05;100.00;99897.91;5052840;28;20983;-51
2022/09/03 08:18:49;;;;;;;4.00;0.70;;;;;;;17.08;100.00;99892.34;5052833;28;20447;-50
2022/09/03 08:21:18;;;;;;;1.20;1.10;;;;;;;17.24;100.00;99889.56;5052988;28;20453;-51
2022/09/03 08:23:47;;;;;;;1.63;1.10;;;;;;;17.18;100.00;99889.00;5053028;28;20483;-51
2022/09/03 08:26:15;;;;;;;0.70;0.50;;;;;;;17.15;100.00;99899.94;5052539;28;20495;-51
2022/09/03 08:28:43;;;;;;;11.83;0.93;;;;;;;17.24;100.00;99898.47;5052497;28;20451;-51
2022/09/03 08:31:15;;;;;;;1.17;0.87;;;;;;;17.24;100.00;99903.00;5052619;28;20454;-50
2022/09/03 08:33:47;;;;;;;0.70;0.53;;;;;;;17.32;100.00;99900.69;5052728;28;20523;-51
2022/09/03 08:36:16;;;;;;;0.80;0.77;;;;;;;17.60;98.62;99899.81;5052870;28;20467;-51
2022/09/03 08:38:45;;;;;;;2.30;1.17;;;;;;;18.04;98.50;99913.09;5052601;28;20446;-50
2022/09/03 08:41:15;;;;;;;0.93;0.93;;;;;;;18.18;100.00;99918.44;5052325;28;20447;-51
2022/09/03 08:43:47;;;;;;;7.10;0.80;;;;;;;18.16;100.00;99917.69;5052807;28;20522;-50
2022/09/03 08:46:15;;;;;;;1.27;1.17;;;;;;;18.16;99.28;99916.81;5052531;28;20501;-51
2022/09/03 08:48:41;;;;;;;1.37;1.27;;;;;;;18.34;96.23;99913.75;5052472;28;21014;-51
2022/09/03 08:51:11;;;;;;;3.07;1.10;;;;;;;18.21;97.78;99917.38;5052385;28;20472;-50
2022/09/03 08:53:47;;;;;;;0.97;0.80;;;;;;;18.68;97.47;99922.31;5052109;28;20852;-50
2022/09/03 08:56:28;;;;;;;1.20;0.80;;;;;;;18.20;97.16;99921.88;5052084;28;20463;-50
2022/09/03 08:58:55;;;;;;;1.53;1.43;;;;;;;18.37;96.56;99923.50;5052319;28;20443;-51
2022/09/03 09:01:34;;;;;;;2.67;1.73;;;;;;;17.98;96.40;99918.91;5065302;28;20819;-50
2022/09/03 09:04:08;;;;;;;1.03;0.93;;;;;;;18.14;97.58;99925.00;5051979;28;20447;-50
2022/09/03 09:06:40;;;;;;;3.57;1.10;;;;;;;18.45;96.83;99928.34;5052101;28;20501;-51
2022/09/03 09:09:36;;;;;;;2.40;1.30;;;;;;;18.61;98.08;99929.03;5052217;28;20442;-50
2022/09/03 09:12:19;;;;;;;1.77;1.67;;;;;;;18.64;95.33;99932.44;5032690;28;20454;-51
2022/09/03 09:14:55;;;;;;;2.50;1.87;;;;;;;18.84;96.84;99930.19;5047368;28;20457;-51
2022/09/03 09:17:33;;;;;;;2.97;1.03;;;;;;;18.38;96.44;99929.72;5049506;28;20991;-51
2022/09/03 09:20:15;;;;;;;1.23;1.13;;;;;;;18.69;97.18;99926.72;5052173;28;20473;-51
2022/09/03 09:23:18;;;;;;;0.70;0.70;;;;;;;18.83;98.74;99934.72;5051869;28;20443;-51
2022/09/03 09:25:48;;;;;;;0.90;0.90;;;;;;;18.94;99.87;99925.91;5039256;28;20512;-51
2022/09/03 09:28:18;;;;;;;1.00;0.80;;;;;;;18.93;97.82;99932.28;5051937;28;20449;-51
2022/09/03 09:30:47;;;;;;;13.53;1.63;;;;;;;19.06;99.93;99935.84;5051910;28;20481;-51
2022/09/03 09:33:16;;;;;;;3.87;1.90;;;;;;;19.03;96.92;99927.94;5051657;28;20450;-51
2022/09/03 09:35:43;;;;;;;1.70;1.60;;;;;;;18.84;96.79;99925.69;5052014;28;20450;-51
2022/09/03 09:38:10;;;;;;;3.37;3.17;;;;;;;19.01;96.52;99919.13;5051728;28;20451;-51
2022/09/03 09:40:42;;;;;;;1.77;1.67;;;;;;;18.96;98.59;99915.91;5051882;28;20450;-52
2022/09/03 09:43:16;;;;;;;2.20;1.67;;;;;;;19.00;98.86;99920.09;5051811;28;20443;-52
2022/09/03 09:45:45;;;;;;;1.80;1.53;;;;;;;19.23;98.66;99922.06;5051224;28;20454;-52
2022/09/03 09:48:22;;;;;;;2.60;1.80;;;;;;;19.46;95.88;99930.31;5051713;28;20534;-52
2022/09/03 09:50:49;;;;;;;1.40;1.30;;;;;;;19.43;96.06;99925.16;5051708;28;20447;-52
2022/09/03 09:53:20;;;;;;;2.47;1.53;;;;;;;19.41;96.79;99932.50;5051394;28;20451;-52
2022/09/03 09:55:49;;;;;;;1.57;1.47;;;;;;;19.86;95.02;99935.59;5051312;28;20466;-52
2022/09/03 09:58:18;;;;;;;1.10;1.00;;;;;;;19.63;95.97;99937.28;5051461;28;20454;-52
2022/09/03 10:01:20;;;;;;;1.57;1.47;;;;;;;19.75;96.97;99931.84;5064851;28;20452;-52
2022/09/03 10:03:53;;;;;;;4.23;1.43;;;;;;;19.77;95.29;99932.59;5034129;28;20454;-52
2022/09/03 10:09:14;;;;;;;7.50;2.10;;;;;;;19.68;96.01;99935.94;5051637;28;20443;-52
2022/09/03 10:11:56;;;;;;;4.73;1.30;;;;;;;19.73;97.70;99931.06;5051489;28;20525;-52
2022/09/03 10:14:33;;;;;;;3.90;2.40;;;;;;;20.10;95.58;99937.34;5051550;28;20453;-52
2022/09/03 10:17:10;;;;;;;3.23;1.90;;;;;;;20.51;94.84;99938.84;5051119;28;20481;-52
2022/09/03 10:20:26;;;;;;;3.13;1.87;;;;;;;20.63;93.67;99928.97;5051440;28;20443;-52
2022/09/03 10:22:45;;;;;;;2.57;2.47;;;;;;;20.65;92.12;99922.47;5052131;28;20454;-52
2022/09/03 10:25:29;;;;;;;7.13;1.60;;;;;;;20.73;93.49;99926.44;5054717;28;20537;-52
2022/09/03 10:27:59;;;;;;;1.77;1.67;;;;;;;20.78;93.90;99919.69;5054720;28;20867;-52
2022/09/03 10:30:30;;;;;;;6.37;2.27;;;;;;;20.98;91.71;99926.28;5053813;28;20443;-53
2022/09/03 10:33:14;;;;;;;2.30;2.07;;;;;;;21.16;92.02;99922.13;5055410;28;20451;-52
2022/09/03 10:35:50;;;;;;;2.40;1.90;;;;;;;21.16;91.60;99918.56;5054639;28;20954;-52
2022/09/03 10:38:36;;;;;;;9.60;2.43;;;;;;;21.13;91.84;99929.63;5055098;28;20446;-52
2022/09/03 10:41:19;;;;;;;3.77;2.43;;;;;;;21.36;90.13;99927.81;5054764;28;20449;-52
2022/09/03 10:44:00;;;;;;;1.57;1.47;;;;;;;20.96;91.88;99920.94;5054735;28;20443;-52
2022/09/03 10:46:35;;;;;;;3.20;2.60;;;;;;;21.14;91.00;99920.53;5054291;28;20494;-52
2022/09/03 10:49:48;;;;;;;2.63;1.30;;;;;;;21.48;91.22;99925.00;5054825;28;20449;-53
2022/09/03 10:52:35;;;;;;;1.60;1.50;;;;;;;21.68;89.35;99912.59;5012913;28;21060;-53
2022/09/03 10:55:21;;;;;;;1.83;1.70;;;;;;;21.39;88.82;99920.34;5054724;28;20462;-52
2022/09/03 10:58:11;;;;;;;4.27;2.23;;;;;;;21.41;89.48;99909.41;5054525;28;20553;-52
2022/09/03 11:00:45;;;;;;;1.83;1.70;;;;;;;21.74;88.38;99903.13;5067566;28;20982;-52
2022/09/03 11:03:32;;;;;;;5.10;1.57;;;;;;;22.03;88.24;99900.72;5054406;28;20834;-52
2022/09/03 11:06:12;;;;;;;2.27;2.13;;;;;;;21.66;89.43;99894.78;5053853;28;20924;-52
2022/09/03 11:08:47;;;;;;;3.03;2.73;;;;;;;21.73;90.63;99898.69;5054223;28;20825;-52
2022/09/03 11:11:25;;;;;;;2.80;1.90;;;;;;;22.03;91.13;99895.31;5054195;28;20449;-52
2022/09/03 11:14:01;;;;;;;1.80;1.70;;;;;;;22.31;88.28;99892.06;5054210;28;20488;-52
2022/09/03 11:16:31;;;;;;;3.03;2.37;;;;;;;21.80;90.42;99897.22;5053951;28;20995;-52
2022/09/03 11:19:10;;;;;;;12.77;1.87;;;;;;;22.01;87.98;99892.75;5054006;28;20806;-52
2022/09/03 11:21:40;;;;;;;2.10;2.00;;;;;;;22.25;87.00;99894.44;5053992;28;20457;-52
2022/09/03 11:24:22;;;;;;;1.90;1.80;;;;;;;22.29;86.77;99896.75;5054026;28;20453;-52
2022/09/03 11:27:01;;;;;;;2.50;2.30;;;;;;;21.92;87.62;99888.06;5053502;28;20561;-53
2022/09/03 11:29:41;;;;;;;2.30;2.20;;;;;;;21.90;89.30;99892.75;5053735;28;20962;-53
2022/09/03 11:32:22;;;;;;;2.30;2.20;;;;;;;21.83;89.22;99884.28;5053562;28;20447;-52
2022/09/03 11:34:53;;;;;;;2.13;2.00;;;;;;;22.18;87.60;99881.41;5053696;28;20475;-52
2022/09/03 11:37:29;;;;;;;1.80;1.70;;;;;;;22.66;85.62;99878.28;5053760;28;20470;-52
2022/09/03 11:40:03;;;;;;;1.97;1.50;;;;;;;22.28;87.84;99872.53;5053795;28;20449;-52
2022/09/03 11:42:35;;;;;;;2.80;2.47;;;;;;;22.18;88.05;99856.16;5053594;28;20939;-52
2022/09/03 11:45:20;;;;;;;2.50;2.40;;;;;;;21.94;88.71;99867.19;5053632;28;20465;-52
2022/09/03 11:47:48;;;;;;;2.77;2.67;;;;;;;21.77;89.98;99862.28;5053192;28;20520;-52
2022/09/03 11:50:19;;;;;;;3.07;2.87;;;;;;;21.88;88.13;99859.56;5053566;28;20453;-52
2022/09/03 11:52:50;;;;;;;8.30;3.67;;;;;;;22.20;88.71;99859.59;5052047;28;20454;-52
2022/09/03 11:55:32;;;;;;;3.90;3.57;;;;;;;22.02;89.01;99853.84;5053282;28;20810;-52
2022/09/03 11:58:24;;;;;;;1.83;1.73;;;;;;;22.04;89.08;99854.59;5053211;28;20952;-52
2022/09/03 12:00:52;;;;;;;4.23;2.50;;;;;;;21.99;88.55;99858.66;5066524;28;20790;-52
2022/09/03 12:03:27;;;;;;;2.30;2.20;;;;;;;21.84;89.25;99855.38;5053504;28;20457;-52